Burlington, Colorado
Current Conditions -  °F | °C
As of 5:53 PM on Friday 19 Dec 2014 (Local Time) from KITR Reporting Station
Clear Clear  
Wind Chill: 23°   Ceiling: Unl
Heat Index: 31°   Visibility: 10mi
Dew Point: 24°   Wind: 8mph
Humidity: 76%   Direction: 210°SSW
Pressure: 30.04"   Gusts: NA
Location:  39.31°N, 102.27°W
Report Text: KITR 200053Z AUTO 21007KT 10SM CLR M01/M04 A3004 RMK AO2 SLP200 T10061044
Loading
Personal Weather Stations






























Interactive Weather Map New forecast layout! Learn more

10-Day Weather Forecast

Advertisements
Track Severe Weather on mobile